sensor_id;sensor_type;location;lat;lon;timestamp;P1;durP1;ratioP1;P2;durP2;ratioP2
6842;SDS011;3460;52.028;8.916;2023-05-10T00:01:00;9.47;;;7.43;;
6842;SDS011;3460;52.028;8.916;2023-05-10T00:03:27;8.60;;;7.80;;
6842;SDS011;3460;52.028;8.916;2023-05-10T00:05:55;8.10;;;7.30;;
6842;SDS011;3460;52.028;8.916;2023-05-10T00:08:22;9.00;;;8.03;;
6842;SDS011;3460;52.028;8.916;2023-05-10T00:10:49;10.20;;;7.77;;
6842;SDS011;3460;52.028;8.916;2023-05-10T00:13:16;8.63;;;7.63;;
6842;SDS011;3460;52.028;8.916;2023-05-10T00:15:43;8.23;;;7.17;;
6842;SDS011;3460;52.028;8.916;2023-05-10T00:18:09;7.90;;;7.20;;
6842;SDS011;3460;52.028;8.916;2023-05-10T00:20:36;8.37;;;7.47;;
6842;SDS011;3460;52.028;8.916;2023-05-10T00:23:04;8.30;;;7.50;;
6842;SDS011;3460;52.028;8.916;2023-05-10T00:25:31;8.13;;;7.20;;
6842;SDS011;3460;52.028;8.916;2023-05-10T00:27:58;7.83;;;7.03;;
6842;SDS011;3460;52.028;8.916;2023-05-10T00:30:26;9.53;;;7.37;;
6842;SDS011;3460;52.028;8.916;2023-05-10T00:32:53;8.57;;;7.67;;
6842;SDS011;3460;52.028;8.916;2023-05-10T00:35:19;8.47;;;7.20;;
6842;SDS011;3460;52.028;8.916;2023-05-10T00:37:47;8.77;;;7.87;;
6842;SDS011;3460;52.028;8.916;2023-05-10T00:40:15;10.77;;;7.60;;
6842;SDS011;3460;52.028;8.916;2023-05-10T00:42:42;8.20;;;7.40;;
6842;SDS011;3460;52.028;8.916;2023-05-10T00:45:09;9.30;;;7.30;;
6842;SDS011;3460;52.028;8.916;2023-05-10T00:47:36;8.80;;;7.90;;
6842;SDS011;3460;52.028;8.916;2023-05-10T00:50:04;8.47;;;7.70;;
6842;SDS011;3460;52.028;8.916;2023-05-10T00:52:31;9.20;;;8.23;;
6842;SDS011;3460;52.028;8.916;2023-05-10T00:54:58;8.60;;;7.70;;
6842;SDS011;3460;52.028;8.916;2023-05-10T00:57:27;10.20;;;8.90;;
6842;SDS011;3460;52.028;8.916;2023-05-10T00:59:55;10.77;;;8.83;;
6842;SDS011;3460;52.028;8.916;2023-05-10T01:02:23;10.10;;;9.07;;
6842;SDS011;3460;52.028;8.916;2023-05-10T01:04:50;9.83;;;8.87;;
6842;SDS011;3460;52.028;8.916;2023-05-10T01:07:17;11.30;;;9.20;;
6842;SDS011;3460;52.028;8.916;2023-05-10T01:09:44;9.87;;;8.87;;
6842;SDS011;3460;52.028;8.916;2023-05-10T01:12:11;12.50;;;9.27;;
6842;SDS011;3460;52.028;8.916;2023-05-10T01:14:39;11.93;;;9.93;;
6842;SDS011;3460;52.028;8.916;2023-05-10T01:17:06;11.40;;;9.93;;
6842;SDS011;3460;52.028;8.916;2023-05-10T01:19:34;10.53;;;9.40;;
6842;SDS011;3460;52.028;8.916;2023-05-10T01:22:04;11.33;;;10.13;;
6842;SDS011;3460;52.028;8.916;2023-05-10T01:24:46;11.07;;;9.97;;
6842;SDS011;3460;52.028;8.916;2023-05-10T01:27:47;10.93;;;9.83;;
6842;SDS011;3460;52.028;8.916;2023-05-10T01:33:31;11.60;;;10.40;;
6842;SDS011;3460;52.028;8.916;2023-05-10T01:36:05;10.80;;;9.70;;
6842;SDS011;3460;52.028;8.916;2023-05-10T01:38:40;13.03;;;11.30;;
6842;SDS011;3460;52.028;8.916;2023-05-10T01:41:13;10.30;;;9.20;;
6842;SDS011;3460;52.028;8.916;2023-05-10T01:43:45;11.00;;;9.90;;
6842;SDS011;3460;52.028;8.916;2023-05-10T01:46:20;11.10;;;10.00;;
6842;SDS011;3460;52.028;8.916;2023-05-10T01:48:56;10.73;;;9.57;;
6842;SDS011;3460;52.028;8.916;2023-05-10T01:51:27;10.30;;;9.20;;
6842;SDS011;3460;52.028;8.916;2023-05-10T01:54:02;11.60;;;10.20;;
6842;SDS011;3460;52.028;8.916;2023-05-10T01:56:32;13.13;;;10.27;;
6842;SDS011;3460;52.028;8.916;2023-05-10T01:59:01;11.00;;;9.90;;
6842;SDS011;3460;52.028;8.916;2023-05-10T02:01:32;12.07;;;10.87;;
6842;SDS011;3460;52.028;8.916;2023-05-10T02:04:03;11.50;;;10.40;;
6842;SDS011;3460;52.028;8.916;2023-05-10T02:06:31;12.83;;;11.47;;
6842;SDS011;3460;52.028;8.916;2023-05-10T02:08:59;12.63;;;11.33;;
6842;SDS011;3460;52.028;8.916;2023-05-10T02:11:27;15.57;;;11.47;;
6842;SDS011;3460;52.028;8.916;2023-05-10T02:13:55;15.13;;;11.70;;
6842;SDS011;3460;52.028;8.916;2023-05-10T02:16:25;13.50;;;12.10;;
6842;SDS011;3460;52.028;8.916;2023-05-10T02:18:55;14.70;;;12.23;;
6842;SDS011;3460;52.028;8.916;2023-05-10T02:21:26;14.80;;;12.67;;
6842;SDS011;3460;52.028;8.916;2023-05-10T02:23:55;15.10;;;12.77;;
6842;SDS011;3460;52.028;8.916;2023-05-10T02:26:24;13.90;;;12.40;;
6842;SDS011;3460;52.028;8.916;2023-05-10T02:28:52;13.87;;;12.13;;
6842;SDS011;3460;52.028;8.916;2023-05-10T02:31:20;15.50;;;12.43;;
6842;SDS011;3460;52.028;8.916;2023-05-10T02:33:48;16.33;;;13.23;;
6842;SDS011;3460;52.028;8.916;2023-05-10T02:36:16;15.20;;;13.17;;
6842;SDS011;3460;52.028;8.916;2023-05-10T02:38:44;14.27;;;12.77;;
6842;SDS011;3460;52.028;8.916;2023-05-10T02:41:12;14.63;;;12.70;;
6842;SDS011;3460;52.028;8.916;2023-05-10T02:43:40;14.60;;;13.03;;
6842;SDS011;3460;52.028;8.916;2023-05-10T02:46:08;15.50;;;13.87;;
6842;SDS011;3460;52.028;8.916;2023-05-10T02:48:34;15.47;;;13.33;;
6842;SDS011;3460;52.028;8.916;2023-05-10T02:51:03;16.00;;;14.07;;
6842;SDS011;3460;52.028;8.916;2023-05-10T02:53:33;15.10;;;13.50;;
6842;SDS011;3460;52.028;8.916;2023-05-10T02:56:09;17.13;;;14.40;;
6842;SDS011;3460;52.028;8.916;2023-05-10T02:58:39;16.90;;;14.17;;
6842;SDS011;3460;52.028;8.916;2023-05-10T03:01:05;7.63;;;6.27;;
6842;SDS011;3460;52.028;8.916;2023-05-10T03:03:33;5.97;;;4.10;;
6842;SDS011;3460;52.028;8.916;2023-05-10T03:06:00;5.17;;;4.10;;
6842;SDS011;3460;52.028;8.916;2023-05-10T03:08:27;3.97;;;3.37;;
6842;SDS011;3460;52.028;8.916;2023-05-10T03:10:57;3.03;;;2.10;;
6842;SDS011;3460;52.028;8.916;2023-05-10T03:13:35;2.53;;;1.73;;
6842;SDS011;3460;52.028;8.916;2023-05-10T03:16:12;4.37;;;1.80;;
6842;SDS011;3460;52.028;8.916;2023-05-10T03:18:42;2.93;;;1.80;;
6842;SDS011;3460;52.028;8.916;2023-05-10T03:21:14;3.13;;;1.50;;
6842;SDS011;3460;52.028;8.916;2023-05-10T03:23:45;1.70;;;1.60;;
6842;SDS011;3460;52.028;8.916;2023-05-10T03:26:16;2.17;;;1.50;;
6842;SDS011;3460;52.028;8.916;2023-05-10T03:28:48;2.73;;;1.43;;
6842;SDS011;3460;52.028;8.916;2023-05-10T03:31:15;2.10;;;1.47;;
6842;SDS011;3460;52.028;8.916;2023-05-10T03:33:47;2.53;;;1.50;;
6842;SDS011;3460;52.028;8.916;2023-05-10T03:36:14;1.60;;;1.43;;
6842;SDS011;3460;52.028;8.916;2023-05-10T03:38:41;2.07;;;1.60;;
6842;SDS011;3460;52.028;8.916;2023-05-10T03:41:08;2.13;;;1.70;;
6842;SDS011;3460;52.028;8.916;2023-05-10T03:43:35;3.60;;;1.70;;
6842;SDS011;3460;52.028;8.916;2023-05-10T03:46:03;3.50;;;1.60;;
6842;SDS011;3460;52.028;8.916;2023-05-10T03:48:33;2.80;;;1.47;;
6842;SDS011;3460;52.028;8.916;2023-05-10T03:50:59;2.70;;;1.70;;
6842;SDS011;3460;52.028;8.916;2023-05-10T03:53:26;1.80;;;1.50;;
6842;SDS011;3460;52.028;8.916;2023-05-10T03:55:53;3.17;;;1.80;;
6842;SDS011;3460;52.028;8.916;2023-05-10T03:58:20;2.00;;;1.60;;
6842;SDS011;3460;52.028;8.916;2023-05-10T04:00:47;1.90;;;1.70;;
6842;SDS011;3460;52.028;8.916;2023-05-10T04:03:15;2.27;;;1.57;;
6842;SDS011;3460;52.028;8.916;2023-05-10T04:05:42;3.07;;;1.87;;
6842;SDS011;3460;52.028;8.916;2023-05-10T04:08:09;2.30;;;1.63;;
6842;SDS011;3460;52.028;8.916;2023-05-10T04:10:35;2.10;;;1.90;;
6842;SDS011;3460;52.028;8.916;2023-05-10T04:13:02;3.43;;;2.10;;
6842;SDS011;3460;52.028;8.916;2023-05-10T04:15:29;4.00;;;2.70;;
6842;SDS011;3460;52.028;8.916;2023-05-10T04:17:56;4.50;;;3.27;;
6842;SDS011;3460;52.028;8.916;2023-05-10T04:20:24;4.30;;;3.30;;
6842;SDS011;3460;52.028;8.916;2023-05-10T04:22:51;4.33;;;3.70;;
6842;SDS011;3460;52.028;8.916;2023-05-10T04:25:17;6.37;;;5.20;;
6842;SDS011;3460;52.028;8.916;2023-05-10T04:27:44;6.30;;;5.10;;
6842;SDS011;3460;52.028;8.916;2023-05-10T04:30:11;6.90;;;6.20;;
6842;SDS011;3460;52.028;8.916;2023-05-10T04:32:38;7.50;;;6.50;;
6842;SDS011;3460;52.028;8.916;2023-05-10T04:35:05;8.70;;;7.80;;
6842;SDS011;3460;52.028;8.916;2023-05-10T04:37:34;8.13;;;7.13;;
6842;SDS011;3460;52.028;8.916;2023-05-10T04:40:01;9.47;;;8.43;;
6842;SDS011;3460;52.028;8.916;2023-05-10T04:42:29;10.27;;;8.97;;
6842;SDS011;3460;52.028;8.916;2023-05-10T04:44:55;9.90;;;8.90;;
6842;SDS011;3460;52.028;8.916;2023-05-10T04:47:22;13.40;;;9.73;;
6842;SDS011;3460;52.028;8.916;2023-05-10T04:49:49;11.77;;;9.73;;
6842;SDS011;3460;52.028;8.916;2023-05-10T04:52:16;11.83;;;9.67;;
6842;SDS011;3460;52.028;8.916;2023-05-10T04:54:44;10.97;;;9.00;;
6842;SDS011;3460;52.028;8.916;2023-05-10T04:57:11;9.60;;;8.57;;
6842;SDS011;3460;52.028;8.916;2023-05-10T04:59:38;10.80;;;8.87;;
6842;SDS011;3460;52.028;8.916;2023-05-10T05:02:05;26.07;;;19.03;;
6842;SDS011;3460;52.028;8.916;2023-05-10T05:04:31;9.10;;;8.13;;
6842;SDS011;3460;52.028;8.916;2023-05-10T05:06:58;8.10;;;6.50;;
6842;SDS011;3460;52.028;8.916;2023-05-10T05:09:25;8.83;;;5.83;;
6842;SDS011;3460;52.028;8.916;2023-05-10T05:11:54;5.77;;;5.17;;
6842;SDS011;3460;52.028;8.916;2023-05-10T05:14:21;4.30;;;3.80;;
6842;SDS011;3460;52.028;8.916;2023-05-10T05:16:49;2.27;;;2.07;;
6842;SDS011;3460;52.028;8.916;2023-05-10T05:19:16;2.57;;;1.93;;
6842;SDS011;3460;52.028;8.916;2023-05-10T05:21:43;3.83;;;1.83;;
6842;SDS011;3460;52.028;8.916;2023-05-10T05:24:10;3.93;;;1.50;;
6842;SDS011;3460;52.028;8.916;2023-05-10T05:26:37;11.43;;;7.03;;
6842;SDS011;3460;52.028;8.916;2023-05-10T05:29:05;1.33;;;1.10;;
6842;SDS011;3460;52.028;8.916;2023-05-10T05:31:32;0.60;;;0.60;;
6842;SDS011;3460;52.028;8.916;2023-05-10T05:33:59;0.93;;;0.70;;
6842;SDS011;3460;52.028;8.916;2023-05-10T05:36:26;0.80;;;0.80;;
6842;SDS011;3460;52.028;8.916;2023-05-10T05:38:53;0.80;;;0.80;;
6842;SDS011;3460;52.028;8.916;2023-05-10T05:41:20;1.10;;;0.90;;
6842;SDS011;3460;52.028;8.916;2023-05-10T05:43:47;1.50;;;1.10;;
6842;SDS011;3460;52.028;8.916;2023-05-10T05:46:15;0.87;;;0.87;;
6842;SDS011;3460;52.028;8.916;2023-05-10T05:48:42;4.60;;;0.90;;
6842;SDS011;3460;52.028;8.916;2023-05-10T05:51:08;1.07;;;0.93;;
6842;SDS011;3460;52.028;8.916;2023-05-10T05:53:35;1.53;;;1.10;;
6842;SDS011;3460;52.028;8.916;2023-05-10T05:56:02;1.40;;;1.30;;
6842;SDS011;3460;52.028;8.916;2023-05-10T05:58:29;1.60;;;1.43;;
6842;SDS011;3460;52.028;8.916;2023-05-10T06:00:56;1.67;;;1.23;;
6842;SDS011;3460;52.028;8.916;2023-05-10T06:03:24;1.60;;;1.50;;
6842;SDS011;3460;52.028;8.916;2023-05-10T06:05:51;1.97;;;1.20;;
6842;SDS011;3460;52.028;8.916;2023-05-10T06:08:18;3.00;;;1.40;;
6842;SDS011;3460;52.028;8.916;2023-05-10T06:10:45;3.73;;;1.53;;
6842;SDS011;3460;52.028;8.916;2023-05-10T06:13:12;2.80;;;1.50;;
6842;SDS011;3460;52.028;8.916;2023-05-10T06:15:39;2.17;;;1.50;;
6842;SDS011;3460;52.028;8.916;2023-05-10T06:18:05;5.17;;;1.50;;
6842;SDS011;3460;52.028;8.916;2023-05-10T06:20:34;1.70;;;1.50;;
6842;SDS011;3460;52.028;8.916;2023-05-10T06:23:00;2.30;;;1.43;;
6842;SDS011;3460;52.028;8.916;2023-05-10T06:25:27;1.53;;;1.40;;
6842;SDS011;3460;52.028;8.916;2023-05-10T06:27:54;3.03;;;1.50;;
6842;SDS011;3460;52.028;8.916;2023-05-10T06:30:23;2.40;;;1.73;;
6842;SDS011;3460;52.028;8.916;2023-05-10T06:32:52;4.27;;;3.63;;
6842;SDS011;3460;52.028;8.916;2023-05-10T06:35:20;4.70;;;3.90;;
6842;SDS011;3460;52.028;8.916;2023-05-10T06:37:48;2.83;;;2.10;;
6842;SDS011;3460;52.028;8.916;2023-05-10T06:40:16;2.67;;;1.60;;
6842;SDS011;3460;52.028;8.916;2023-05-10T06:42:43;2.63;;;1.77;;
6842;SDS011;3460;52.028;8.916;2023-05-10T06:45:11;3.10;;;2.03;;
6842;SDS011;3460;52.028;8.916;2023-05-10T06:47:38;2.43;;;2.23;;
6842;SDS011;3460;52.028;8.916;2023-05-10T06:50:05;2.60;;;2.10;;
6842;SDS011;3460;52.028;8.916;2023-05-10T06:52:33;2.53;;;1.80;;
6842;SDS011;3460;52.028;8.916;2023-05-10T06:55:01;4.10;;;2.10;;
6842;SDS011;3460;52.028;8.916;2023-05-10T06:57:29;2.77;;;2.13;;
6842;SDS011;3460;52.028;8.916;2023-05-10T06:59:56;2.80;;;1.93;;
6842;SDS011;3460;52.028;8.916;2023-05-10T07:02:22;2.87;;;1.90;;
6842;SDS011;3460;52.028;8.916;2023-05-10T07:04:49;2.30;;;2.10;;
6842;SDS011;3460;52.028;8.916;2023-05-10T07:07:16;2.37;;;2.10;;
6842;SDS011;3460;52.028;8.916;2023-05-10T07:09:44;2.30;;;2.10;;
6842;SDS011;3460;52.028;8.916;2023-05-10T07:12:12;2.40;;;2.10;;
6842;SDS011;3460;52.028;8.916;2023-05-10T07:14:39;3.10;;;2.40;;
6842;SDS011;3460;52.028;8.916;2023-05-10T07:17:06;4.17;;;2.40;;
6842;SDS011;3460;52.028;8.916;2023-05-10T07:19:32;2.53;;;2.30;;
6842;SDS011;3460;52.028;8.916;2023-05-10T07:21:59;2.10;;;1.90;;
6842;SDS011;3460;52.028;8.916;2023-05-10T07:24:26;2.50;;;2.10;;
6842;SDS011;3460;52.028;8.916;2023-05-10T07:26:53;2.33;;;2.10;;
6842;SDS011;3460;52.028;8.916;2023-05-10T07:29:21;2.30;;;1.80;;
6842;SDS011;3460;52.028;8.916;2023-05-10T07:31:48;2.40;;;1.90;;
6842;SDS011;3460;52.028;8.916;2023-05-10T07:34:15;2.83;;;2.00;;
6842;SDS011;3460;52.028;8.916;2023-05-10T07:36:42;5.03;;;2.40;;
6842;SDS011;3460;52.028;8.916;2023-05-10T07:39:08;2.63;;;2.20;;
6842;SDS011;3460;52.028;8.916;2023-05-10T07:41:35;3.03;;;2.00;;
6842;SDS011;3460;52.028;8.916;2023-05-10T07:44:03;2.43;;;1.93;;
6842;SDS011;3460;52.028;8.916;2023-05-10T07:46:32;4.53;;;2.20;;
6842;SDS011;3460;52.028;8.916;2023-05-10T07:48:59;2.97;;;2.20;;
6842;SDS011;3460;52.028;8.916;2023-05-10T07:51:26;2.43;;;2.03;;
6842;SDS011;3460;52.028;8.916;2023-05-10T07:53:53;2.63;;;2.00;;
6842;SDS011;3460;52.028;8.916;2023-05-10T07:56:20;3.80;;;1.73;;
6842;SDS011;3460;52.028;8.916;2023-05-10T07:58:49;3.47;;;1.70;;
6842;SDS011;3460;52.028;8.916;2023-05-10T08:01:16;2.63;;;1.57;;
6842;SDS011;3460;52.028;8.916;2023-05-10T08:03:45;4.67;;;2.10;;
6842;SDS011;3460;52.028;8.916;2023-05-10T08:06:11;3.97;;;1.80;;
6842;SDS011;3460;52.028;8.916;2023-05-10T08:08:38;3.40;;;1.70;;
6842;SDS011;3460;52.028;8.916;2023-05-10T08:11:05;4.47;;;2.10;;
6842;SDS011;3460;52.028;8.916;2023-05-10T08:13:32;5.67;;;2.27;;
6842;SDS011;3460;52.028;8.916;2023-05-10T08:15:59;2.77;;;2.30;;
6842;SDS011;3460;52.028;8.916;2023-05-10T08:18:26;5.30;;;2.60;;
6842;SDS011;3460;52.028;8.916;2023-05-10T08:20:54;4.97;;;2.63;;
6842;SDS011;3460;52.028;8.916;2023-05-10T08:23:21;5.60;;;2.83;;
6842;SDS011;3460;52.028;8.916;2023-05-10T08:25:48;4.83;;;2.77;;
6842;SDS011;3460;52.028;8.916;2023-05-10T08:28:15;4.03;;;2.80;;
6842;SDS011;3460;52.028;8.916;2023-05-10T08:30:41;5.13;;;3.07;;
6842;SDS011;3460;52.028;8.916;2023-05-10T08:33:08;5.27;;;2.93;;
6842;SDS011;3460;52.028;8.916;2023-05-10T08:35:35;7.43;;;4.10;;
6842;SDS011;3460;52.028;8.916;2023-05-10T08:38:03;7.07;;;3.43;;
6842;SDS011;3460;52.028;8.916;2023-05-10T08:40:30;7.60;;;3.40;;
6842;SDS011;3460;52.028;8.916;2023-05-10T08:42:58;5.63;;;3.57;;
6842;SDS011;3460;52.028;8.916;2023-05-10T08:45:31;4.30;;;3.70;;
6842;SDS011;3460;52.028;8.916;2023-05-10T08:47:59;4.83;;;3.60;;
6842;SDS011;3460;52.028;8.916;2023-05-10T08:50:27;8.93;;;4.83;;
6842;SDS011;3460;52.028;8.916;2023-05-10T08:52:57;8.60;;;4.87;;
6842;SDS011;3460;52.028;8.916;2023-05-10T08:55:27;9.83;;;5.23;;
6842;SDS011;3460;52.028;8.916;2023-05-10T08:57:55;6.97;;;4.90;;
6842;SDS011;3460;52.028;8.916;2023-05-10T09:00:22;7.67;;;5.60;;
6842;SDS011;3460;52.028;8.916;2023-05-10T09:02:49;7.70;;;5.53;;
6842;SDS011;3460;52.028;8.916;2023-05-10T09:05:16;8.10;;;5.47;;
6842;SDS011;3460;52.028;8.916;2023-05-10T09:07:43;10.17;;;5.43;;
6842;SDS011;3460;52.028;8.916;2023-05-10T09:10:10;7.40;;;5.37;;
6842;SDS011;3460;52.028;8.916;2023-05-10T09:12:39;8.17;;;5.73;;
6842;SDS011;3460;52.028;8.916;2023-05-10T09:15:06;11.30;;;6.03;;
6842;SDS011;3460;52.028;8.916;2023-05-10T09:17:35;8.33;;;6.63;;
6842;SDS011;3460;52.028;8.916;2023-05-10T09:20:03;12.73;;;7.30;;
6842;SDS011;3460;52.028;8.916;2023-05-10T09:22:31;11.17;;;8.23;;
6842;SDS011;3460;52.028;8.916;2023-05-10T09:25:08;10.00;;;6.93;;
6842;SDS011;3460;52.028;8.916;2023-05-10T09:27:37;11.23;;;6.90;;
6842;SDS011;3460;52.028;8.916;2023-05-10T09:30:06;10.77;;;5.97;;
6842;SDS011;3460;52.028;8.916;2023-05-10T09:32:37;12.67;;;7.63;;
6842;SDS011;3460;52.028;8.916;2023-05-10T09:35:08;10.83;;;6.80;;
6842;SDS011;3460;52.028;8.916;2023-05-10T09:37:35;10.80;;;7.43;;
6842;SDS011;3460;52.028;8.916;2023-05-10T09:40:05;9.63;;;6.73;;
6842;SDS011;3460;52.028;8.916;2023-05-10T09:42:33;13.13;;;8.23;;
6842;SDS011;3460;52.028;8.916;2023-05-10T09:45:03;10.93;;;7.37;;
6842;SDS011;3460;52.028;8.916;2023-05-10T09:47:31;12.53;;;7.70;;
6842;SDS011;3460;52.028;8.916;2023-05-10T09:49:58;13.67;;;7.47;;
6842;SDS011;3460;52.028;8.916;2023-05-10T09:52:28;13.90;;;7.53;;
6842;SDS011;3460;52.028;8.916;2023-05-10T09:54:55;10.27;;;7.23;;
6842;SDS011;3460;52.028;8.916;2023-05-10T09:57:23;8.10;;;6.10;;
6842;SDS011;3460;52.028;8.916;2023-05-10T09:59:50;15.63;;;6.80;;
6842;SDS011;3460;52.028;8.916;2023-05-10T10:02:20;10.37;;;6.97;;
6842;SDS011;3460;52.028;8.916;2023-05-10T10:04:54;11.57;;;8.33;;
6842;SDS011;3460;52.028;8.916;2023-05-10T10:07:22;9.83;;;6.30;;
6842;SDS011;3460;52.028;8.916;2023-05-10T10:09:51;11.30;;;7.80;;
6842;SDS011;3460;52.028;8.916;2023-05-10T10:12:19;10.23;;;7.17;;
6842;SDS011;3460;52.028;8.916;2023-05-10T10:14:46;9.57;;;8.00;;
6842;SDS011;3460;52.028;8.916;2023-05-10T10:17:14;12.40;;;9.80;;
6842;SDS011;3460;52.028;8.916;2023-05-10T10:19:42;15.00;;;9.50;;
6842;SDS011;3460;52.028;8.916;2023-05-10T10:22:11;16.40;;;10.67;;
6842;SDS011;3460;52.028;8.916;2023-05-10T10:24:38;17.03;;;11.27;;
6842;SDS011;3460;52.028;8.916;2023-05-10T10:27:11;18.17;;;11.67;;
6842;SDS011;3460;52.028;8.916;2023-05-10T10:29:47;17.27;;;12.13;;
6842;SDS011;3460;52.028;8.916;2023-05-10T10:32:22;17.80;;;12.10;;
6842;SDS011;3460;52.028;8.916;2023-05-10T10:34:55;16.07;;;11.37;;
6842;SDS011;3460;52.028;8.916;2023-05-10T10:37:23;19.33;;;13.07;;
6842;SDS011;3460;52.028;8.916;2023-05-10T10:42:49;16.57;;;12.00;;
6842;SDS011;3460;52.028;8.916;2023-05-10T10:45:15;17.80;;;12.10;;
6842;SDS011;3460;52.028;8.916;2023-05-10T10:47:42;17.17;;;12.60;;
6842;SDS011;3460;52.028;8.916;2023-05-10T10:50:12;15.27;;;11.17;;
6842;SDS011;3460;52.028;8.916;2023-05-10T10:52:39;14.83;;;11.67;;
6842;SDS011;3460;52.028;8.916;2023-05-10T10:55:16;16.50;;;11.83;;
6842;SDS011;3460;52.028;8.916;2023-05-10T10:57:47;18.93;;;10.93;;
6842;SDS011;3460;52.028;8.916;2023-05-10T11:00:20;14.97;;;11.57;;
6842;SDS011;3460;52.028;8.916;2023-05-10T11:02:58;15.27;;;10.70;;
6842;SDS011;3460;52.028;8.916;2023-05-10T11:08:27;13.23;;;9.73;;
6842;SDS011;3460;52.028;8.916;2023-05-10T11:13:42;12.70;;;10.23;;
6842;SDS011;3460;52.028;8.916;2023-05-10T11:16:16;11.17;;;8.40;;
6842;SDS011;3460;52.028;8.916;2023-05-10T11:18:54;11.03;;;8.33;;
6842;SDS011;3460;52.028;8.916;2023-05-10T11:21:26;10.67;;;8.20;;
6842;SDS011;3460;52.028;8.916;2023-05-10T11:23:54;12.77;;;7.10;;
6842;SDS011;3460;52.028;8.916;2023-05-10T11:26:23;10.27;;;6.97;;
6842;SDS011;3460;52.028;8.916;2023-05-10T11:28:52;12.97;;;7.40;;
6842;SDS011;3460;52.028;8.916;2023-05-10T11:31:21;8.80;;;6.33;;
6842;SDS011;3460;52.028;8.916;2023-05-10T11:33:51;9.40;;;6.70;;
6842;SDS011;3460;52.028;8.916;2023-05-10T11:36:20;7.80;;;5.93;;
6842;SDS011;3460;52.028;8.916;2023-05-10T11:38:48;7.37;;;5.53;;
6842;SDS011;3460;52.028;8.916;2023-05-10T11:41:15;8.43;;;6.23;;
6842;SDS011;3460;52.028;8.916;2023-05-10T11:43:46;9.57;;;6.00;;
6842;SDS011;3460;52.028;8.916;2023-05-10T11:46:15;8.80;;;5.70;;
6842;SDS011;3460;52.028;8.916;2023-05-10T11:48:45;10.43;;;7.03;;
6842;SDS011;3460;52.028;8.916;2023-05-10T11:51:13;9.55;;;6.90;;
6842;SDS011;3460;52.028;8.916;2023-05-10T11:53:40;8.00;;;6.00;;
6842;SDS011;3460;52.028;8.916;2023-05-10T11:56:07;6.30;;;4.70;;
6842;SDS011;3460;52.028;8.916;2023-05-10T11:58:35;6.90;;;4.60;;
6842;SDS011;3460;52.028;8.916;2023-05-10T12:01:04;7.60;;;5.07;;
6842;SDS011;3460;52.028;8.916;2023-05-10T12:03:33;6.03;;;5.00;;
6842;SDS011;3460;52.028;8.916;2023-05-10T12:06:01;6.57;;;5.30;;
6842;SDS011;3460;52.028;8.916;2023-05-10T12:08:29;10.77;;;5.88;;
6842;SDS011;3460;52.028;8.916;2023-05-10T12:11:04;7.30;;;6.03;;
6842;SDS011;3460;52.028;8.916;2023-05-10T12:13:31;7.15;;;5.25;;
6842;SDS011;3460;52.028;8.916;2023-05-10T12:15:58;8.23;;;5.65;;
6842;SDS011;3460;52.028;8.916;2023-05-10T12:18:27;6.22;;;4.35;;
6842;SDS011;3460;52.028;8.916;2023-05-10T12:20:53;5.75;;;3.95;;
6842;SDS011;3460;52.028;8.916;2023-05-10T12:23:28;7.60;;;4.43;;
6842;SDS011;3460;52.028;8.916;2023-05-10T12:26:01;6.72;;;3.80;;
6842;SDS011;3460;52.028;8.916;2023-05-10T12:28:29;7.53;;;4.13;;
6842;SDS011;3460;52.028;8.916;2023-05-10T12:30:57;7.22;;;4.20;;
6842;SDS011;3460;52.028;8.916;2023-05-10T12:33:24;6.32;;;3.85;;
6842;SDS011;3460;52.028;8.916;2023-05-10T12:35:53;7.77;;;4.07;;
6842;SDS011;3460;52.028;8.916;2023-05-10T12:38:25;8.77;;;3.60;;
6842;SDS011;3460;52.028;8.916;2023-05-10T12:40:54;4.82;;;3.42;;
6842;SDS011;3460;52.028;8.916;2023-05-10T12:43:21;10.17;;;4.30;;
6842;SDS011;3460;52.028;8.916;2023-05-10T12:45:48;7.17;;;3.83;;
6842;SDS011;3460;52.028;8.916;2023-05-10T12:48:15;7.47;;;3.90;;
6842;SDS011;3460;52.028;8.916;2023-05-10T12:50:42;4.97;;;4.17;;
6842;SDS011;3460;52.028;8.916;2023-05-10T12:53:10;5.47;;;4.17;;
6842;SDS011;3460;52.028;8.916;2023-05-10T12:55:38;5.77;;;3.63;;
6842;SDS011;3460;52.028;8.916;2023-05-10T12:58:05;7.83;;;4.13;;
6842;SDS011;3460;52.028;8.916;2023-05-10T13:00:32;9.03;;;5.03;;
6842;SDS011;3460;52.028;8.916;2023-05-10T13:02:58;8.93;;;4.73;;
6842;SDS011;3460;52.028;8.916;2023-05-10T13:05:25;6.03;;;4.20;;
6842;SDS011;3460;52.028;8.916;2023-05-10T13:07:52;6.70;;;3.77;;
6842;SDS011;3460;52.028;8.916;2023-05-10T13:10:20;8.87;;;4.30;;
6842;SDS011;3460;52.028;8.916;2023-05-10T13:12:48;5.47;;;3.43;;
6842;SDS011;3460;52.028;8.916;2023-05-10T13:15:15;5.33;;;3.60;;
6842;SDS011;3460;52.028;8.916;2023-05-10T13:17:42;5.73;;;3.23;;
6842;SDS011;3460;52.028;8.916;2023-05-10T13:20:10;8.20;;;3.97;;
6842;SDS011;3460;52.028;8.916;2023-05-10T13:22:37;6.90;;;3.90;;
6842;SDS011;3460;52.028;8.916;2023-05-10T13:25:04;5.93;;;4.37;;
6842;SDS011;3460;52.028;8.916;2023-05-10T13:27:33;11.80;;;4.40;;
6842;SDS011;3460;52.028;8.916;2023-05-10T13:30:00;6.70;;;4.40;;
6842;SDS011;3460;52.028;8.916;2023-05-10T13:32:28;8.20;;;4.57;;
6842;SDS011;3460;52.028;8.916;2023-05-10T13:34:55;6.00;;;4.33;;
6842;SDS011;3460;52.028;8.916;2023-05-10T13:37:22;4.60;;;3.47;;
6842;SDS011;3460;52.028;8.916;2023-05-10T13:39:49;7.23;;;3.70;;
6842;SDS011;3460;52.028;8.916;2023-05-10T13:42:15;6.23;;;3.50;;
6842;SDS011;3460;52.028;8.916;2023-05-10T13:44:44;5.23;;;3.03;;
6842;SDS011;3460;52.028;8.916;2023-05-10T13:47:11;4.77;;;2.97;;
6842;SDS011;3460;52.028;8.916;2023-05-10T13:49:38;4.90;;;3.00;;
6842;SDS011;3460;52.028;8.916;2023-05-10T13:52:04;4.27;;;3.07;;
6842;SDS011;3460;52.028;8.916;2023-05-10T13:54:32;5.00;;;3.10;;
6842;SDS011;3460;52.028;8.916;2023-05-10T13:56:59;5.47;;;3.30;;
6842;SDS011;3460;52.028;8.916;2023-05-10T13:59:25;5.60;;;3.00;;
6842;SDS011;3460;52.028;8.916;2023-05-10T14:01:54;4.63;;;2.43;;
6842;SDS011;3460;52.028;8.916;2023-05-10T14:04:20;4.07;;;2.77;;
6842;SDS011;3460;52.028;8.916;2023-05-10T14:06:47;8.53;;;2.97;;
6842;SDS011;3460;52.028;8.916;2023-05-10T14:09:14;4.77;;;2.70;;
6842;SDS011;3460;52.028;8.916;2023-05-10T14:11:41;3.70;;;2.93;;
6842;SDS011;3460;52.028;8.916;2023-05-10T14:14:09;3.53;;;2.90;;
6842;SDS011;3460;52.028;8.916;2023-05-10T14:16:36;4.50;;;3.13;;
6842;SDS011;3460;52.028;8.916;2023-05-10T14:19:04;3.80;;;3.13;;
6842;SDS011;3460;52.028;8.916;2023-05-10T14:21:32;6.20;;;3.50;;
6842;SDS011;3460;52.028;8.916;2023-05-10T14:23:59;6.37;;;4.07;;
6842;SDS011;3460;52.028;8.916;2023-05-10T14:26:26;6.07;;;4.27;;
6842;SDS011;3460;52.028;8.916;2023-05-10T14:28:53;4.53;;;4.03;;
6842;SDS011;3460;52.028;8.916;2023-05-10T14:31:20;7.10;;;5.73;;
6842;SDS011;3460;52.028;8.916;2023-05-10T14:33:48;8.90;;;5.90;;
6842;SDS011;3460;52.028;8.916;2023-05-10T14:36:16;10.20;;;6.83;;
6842;SDS011;3460;52.028;8.916;2023-05-10T14:38:43;7.73;;;4.53;;
6842;SDS011;3460;52.028;8.916;2023-05-10T14:41:10;5.20;;;3.80;;
6842;SDS011;3460;52.028;8.916;2023-05-10T14:43:39;6.40;;;3.37;;
6842;SDS011;3460;52.028;8.916;2023-05-10T14:46:06;4.73;;;3.50;;
6842;SDS011;3460;52.028;8.916;2023-05-10T14:48:33;7.87;;;3.90;;
6842;SDS011;3460;52.028;8.916;2023-05-10T14:51:00;4.93;;;3.70;;
6842;SDS011;3460;52.028;8.916;2023-05-10T14:53:28;7.73;;;3.87;;
6842;SDS011;3460;52.028;8.916;2023-05-10T14:55:55;7.40;;;4.73;;
6842;SDS011;3460;52.028;8.916;2023-05-10T14:58:22;7.93;;;4.97;;
6842;SDS011;3460;52.028;8.916;2023-05-10T15:00:49;7.17;;;5.10;;
6842;SDS011;3460;52.028;8.916;2023-05-10T15:03:16;7.60;;;4.70;;
6842;SDS011;3460;52.028;8.916;2023-05-10T15:05:42;6.80;;;4.87;;
6842;SDS011;3460;52.028;8.916;2023-05-10T15:08:09;7.50;;;5.37;;
6842;SDS011;3460;52.028;8.916;2023-05-10T15:10:38;7.70;;;5.27;;
6842;SDS011;3460;52.028;8.916;2023-05-10T15:13:05;7.37;;;5.47;;
6842;SDS011;3460;52.028;8.916;2023-05-10T15:15:32;7.47;;;5.50;;
6842;SDS011;3460;52.028;8.916;2023-05-10T15:17:59;8.10;;;5.20;;
6842;SDS011;3460;52.028;8.916;2023-05-10T15:20:26;6.63;;;5.00;;
6842;SDS011;3460;52.028;8.916;2023-05-10T15:22:53;7.20;;;5.30;;
6842;SDS011;3460;52.028;8.916;2023-05-10T15:25:19;7.53;;;4.77;;
6842;SDS011;3460;52.028;8.916;2023-05-10T15:27:48;5.00;;;3.97;;